Terminal Aerodrome Forecast
Issued by NWS Sterling, VA

Current Version | Previous Version | Graphics & Text | Print | Product List | Glossary On
Versions: 1 2 3 4 5 6 7 8 9 10 11 12 13 14 15 16 17
000
FTUS41 KLWX 272300
TAFMRB
TAF
KMRB 272334Z 2800/2824 29008KT P6SM BKN070
     FM281100 30012G18KT P6SM SCT250
     FM282100 28007KT P6SM SCT090=

USA.gov is the U.S. government's official web portal to all federal, state and local government web resources and services.